createdAt,value
2024-01-28T00:00:41.198Z,56.18
2024-01-28T00:01:43.703Z,56.38
2024-01-28T00:02:46.229Z,56.41
2024-01-28T00:03:48.679Z,56.24
2024-01-28T00:04:51.017Z,56.29
2024-01-28T00:05:53.852Z,56.67
2024-01-28T00:06:56.228Z,56.44
2024-01-28T00:07:58.661Z,56.62
2024-01-28T00:09:01.111Z,56.51
2024-01-28T00:10:03.952Z,56.70
2024-01-28T00:11:06.290Z,56.49
2024-01-28T00:12:08.831Z,56.57
2024-01-28T00:13:11.182Z,56.50
2024-01-28T00:14:13.502Z,56.53
2024-01-28T00:15:16.089Z,56.67
2024-01-28T00:16:19.488Z,56.73
2024-01-28T00:17:21.896Z,56.66
2024-01-28T00:18:24.531Z,56.58
2024-01-28T00:19:27.055Z,56.57
2024-01-28T00:20:29.472Z,56.59
2024-01-28T00:21:31.844Z,56.65
2024-01-28T00:22:34.373Z,56.83
2024-01-28T00:23:36.767Z,56.82
2024-01-28T00:24:39.165Z,56.83
2024-01-28T00:25:41.591Z,56.87
2024-01-28T00:26:43.896Z,56.84
2024-01-28T00:27:46.380Z,56.92
2024-01-28T00:28:48.730Z,57.03
2024-01-28T00:29:51.054Z,57.01
2024-01-28T00:30:53.503Z,56.99
2024-01-28T00:31:59.021Z,56.97
2024-01-28T00:33:01.532Z,57.16
2024-01-28T00:34:04.206Z,57.16
2024-01-28T00:35:06.895Z,57.21
2024-01-28T00:36:09.898Z,57.04
2024-01-28T00:37:12.365Z,57.12
2024-01-28T00:38:14.702Z,57.12
2024-01-28T00:39:17.109Z,57.04
2024-01-28T00:40:19.519Z,56.97
2024-01-28T00:41:28.451Z,56.99
2024-01-28T00:42:31.178Z,56.91
2024-01-28T00:43:33.556Z,56.97
2024-01-28T00:44:35.884Z,57.02
2024-01-28T00:45:40.811Z,57.04
2024-01-28T00:46:43.312Z,57.04
2024-01-28T00:47:46.144Z,57.27
2024-01-28T00:48:49.205Z,57.20
2024-01-28T00:49:51.921Z,57.25
2024-01-28T00:50:54.397Z,57.24
2024-01-28T00:51:57.628Z,57.11
2024-01-28T00:53:00.128Z,57.13
2024-01-28T00:54:02.593Z,57.16
2024-01-28T00:55:06.006Z,57.10
2024-01-28T00:56:08.759Z,57.16
2024-01-28T00:57:11.172Z,57.24
2024-01-28T00:58:13.826Z,57.40
2024-01-28T00:59:16.254Z,57.29
2024-01-28T01:00:19.124Z,57.35
2024-01-28T01:01:21.549Z,57.18
2024-01-28T01:02:23.932Z,57.23
2024-01-28T01:03:26.635Z,57.20
2024-01-28T01:04:29.021Z,57.29
2024-01-28T01:05:31.362Z,57.14
2024-01-28T01:06:33.858Z,57.19
2024-01-28T01:07:36.264Z,57.19
2024-01-28T01:08:38.883Z,57.20
2024-01-28T01:09:41.597Z,57.39
2024-01-28T01:10:43.997Z,57.08
2024-01-28T01:11:46.794Z,57.05
2024-01-28T01:12:49.170Z,57.17
2024-01-28T01:13:54.808Z,57.15
2024-01-28T01:14:57.207Z,56.99
2024-01-28T01:16:00.179Z,57.16
2024-01-28T01:17:06.325Z,57.22
2024-01-28T01:18:08.925Z,57.30
2024-01-28T01:19:11.383Z,57.04
2024-01-28T01:20:13.922Z,57.12
2024-01-28T01:21:16.669Z,57.30
2024-01-28T01:22:19.022Z,57.07
2024-01-28T01:23:21.466Z,57.40
2024-01-28T01:24:25.024Z,57.41
2024-01-28T01:25:27.339Z,57.47
2024-01-28T01:26:29.678Z,57.50
2024-01-28T01:27:32.097Z,57.60
2024-01-28T01:28:35.207Z,57.63
2024-01-28T01:29:39.457Z,57.44
2024-01-28T01:30:42.041Z,57.47
2024-01-28T01:31:44.552Z,57.58
2024-01-28T01:32:47.086Z,57.68
2024-01-28T01:33:49.611Z,57.63
2024-01-28T01:34:52.149Z,57.72
2024-01-28T01:35:54.610Z,57.76
2024-01-28T01:36:56.968Z,57.81
2024-01-28T01:37:59.875Z,57.85
2024-01-28T01:39:02.236Z,57.70
2024-01-28T01:40:06.155Z,57.93
2024-01-28T01:41:08.485Z,58.04
2024-01-28T01:42:10.851Z,58.12
2024-01-28T01:43:13.347Z,58.13
2024-01-28T01:44:15.865Z,58.26
2024-01-28T01:45:18.192Z,58.08
2024-01-28T01:46:21.984Z,58.20
2024-01-28T01:47:25.813Z,58.27
2024-01-28T01:48:28.563Z,58.03
2024-01-28T01:49:31.494Z,58.40
2024-01-28T01:50:34.721Z,58.43
2024-01-28T01:51:37.410Z,58.58
2024-01-28T01:52:45.621Z,58.65
2024-01-28T01:53:47.972Z,58.63
2024-01-28T01:54:53.621Z,58.75
2024-01-28T01:55:56.047Z,58.90
2024-01-28T01:56:58.355Z,58.82
2024-01-28T01:58:00.718Z,59.01
2024-01-28T01:59:05.473Z,58.96
2024-01-28T02:00:08.605Z,58.93
2024-01-28T02:01:12.657Z,58.78
2024-01-28T02:02:16.617Z,58.97
2024-01-28T02:03:19.553Z,59.02
2024-01-28T02:04:22.805Z,59.17
2024-01-28T02:05:25.522Z,59.13
2024-01-28T02:06:28.810Z,58.93
2024-01-28T02:07:31.240Z,59.31
2024-01-28T02:08:33.990Z,59.24
2024-01-28T02:09:36.755Z,59.17
2024-01-28T02:10:39.306Z,59.01
2024-01-28T02:11:43.044Z,59.26
2024-01-28T02:12:47.249Z,59.05
2024-01-28T02:13:49.863Z,59.25
2024-01-28T02:15:02.451Z,59.32
2024-01-28T02:16:05.262Z,59.23
2024-01-28T02:17:07.599Z,59.46
2024-01-28T02:18:10.323Z,59.25
2024-01-28T02:19:12.785Z,59.52
2024-01-28T02:20:15.448Z,59.29
2024-01-28T02:21:17.834Z,59.47
2024-01-28T02:22:20.213Z,59.62
2024-01-28T02:23:22.843Z,59.73
2024-01-28T02:24:25.317Z,59.68
2024-01-28T02:25:27.689Z,59.55
2024-01-28T02:26:30.008Z,59.80
2024-01-28T02:27:32.371Z,59.59
2024-01-28T02:28:34.698Z,59.81
2024-01-28T02:29:37.060Z,59.89
2024-01-28T02:30:39.428Z,59.83
2024-01-28T02:31:41.810Z,59.85
2024-01-28T02:32:51.159Z,59.82
2024-01-28T02:33:53.692Z,59.81
2024-01-28T02:34:56.058Z,59.72
2024-01-28T02:35:58.665Z,59.84
2024-01-28T02:37:00.992Z,59.71
2024-01-28T02:38:03.518Z,59.83
2024-01-28T02:39:05.979Z,59.77
2024-01-28T02:40:10.085Z,59.78
2024-01-28T02:41:12.469Z,59.85
2024-01-28T02:42:14.856Z,59.67
2024-01-28T02:43:17.268Z,59.95
2024-01-28T02:44:19.651Z,60.14
2024-01-28T02:45:22.030Z,59.99
2024-01-28T02:46:24.392Z,60.10
2024-01-28T02:47:26.796Z,60.03
2024-01-28T02:48:29.287Z,60.11
2024-01-28T02:49:31.791Z,60.03
2024-01-28T02:50:34.180Z,59.98
2024-01-28T02:51:36.565Z,59.82
2024-01-28T02:52:38.966Z,60.12
2024-01-28T02:53:41.292Z,60.11
2024-01-28T02:54:43.797Z,59.95
2024-01-28T02:55:46.178Z,60.09
2024-01-28T02:56:48.483Z,59.96
2024-01-28T02:57:50.950Z,60.15
2024-01-28T02:58:53.335Z,59.99
2024-01-28T02:59:56.111Z,59.96
2024-01-28T03:00:59.468Z,59.93
2024-01-28T03:02:02.133Z,59.97
2024-01-28T03:03:05.562Z,60.20
2024-01-28T03:04:08.170Z,60.15
2024-01-28T03:05:11.336Z,60.18
2024-01-28T03:06:13.771Z,60.01
2024-01-28T03:07:16.336Z,60.03
2024-01-28T03:08:18.788Z,60.04
2024-01-28T03:09:21.127Z,60.14
2024-01-28T03:10:23.453Z,60.28
2024-01-28T03:11:25.761Z,60.15
2024-01-28T03:12:28.076Z,60.17
2024-01-28T03:13:30.378Z,60.11
2024-01-28T03:14:32.839Z,60.04
2024-01-28T03:15:35.206Z,60.24
2024-01-28T03:16:37.611Z,60.19
2024-01-28T03:17:40.560Z,60.46
2024-01-28T03:18:43.009Z,60.64
2024-01-28T03:19:45.681Z,60.79
2024-01-28T03:20:48.299Z,60.58
2024-01-28T03:21:50.775Z,60.50
2024-01-28T03:22:53.121Z,60.69
2024-01-28T03:23:55.784Z,60.69
2024-01-28T03:24:58.122Z,60.56
2024-01-28T03:26:00.498Z,60.55
2024-01-28T03:27:03.031Z,60.58
2024-01-28T03:28:06.952Z,60.66
2024-01-28T03:29:09.317Z,60.57
2024-01-28T03:30:12.078Z,60.44
2024-01-28T03:31:14.716Z,60.51
2024-01-28T03:32:17.307Z,60.63
2024-01-28T03:33:19.823Z,60.43
2024-01-28T03:34:22.366Z,60.40
2024-01-28T03:35:25.036Z,60.59
2024-01-28T03:36:27.471Z,60.74
2024-01-28T03:37:30.025Z,60.54
2024-01-28T03:38:32.305Z,60.66
2024-01-28T03:39:34.727Z,60.81
2024-01-28T03:40:37.075Z,60.59
2024-01-28T03:41:39.878Z,60.53
2024-01-28T03:42:42.808Z,60.37
2024-01-28T03:43:47.654Z,60.55
2024-01-28T03:44:49.991Z,60.65
2024-01-28T03:45:52.366Z,60.61
2024-01-28T03:46:56.102Z,60.60
2024-01-28T03:47:58.620Z,60.77
2024-01-28T03:49:01.833Z,60.75
2024-01-28T03:50:05.424Z,60.61
2024-01-28T03:51:07.869Z,60.62
2024-01-28T03:52:10.224Z,60.72
2024-01-28T03:53:12.907Z,60.58
2024-01-28T03:54:15.607Z,60.72
2024-01-28T03:55:18.032Z,60.75
2024-01-28T03:56:20.364Z,60.91
2024-01-28T03:57:23.095Z,60.67
2024-01-28T03:58:25.399Z,60.72
2024-01-28T03:59:29.002Z,60.77
2024-01-28T04:00:31.556Z,60.80
2024-01-28T04:01:35.502Z,60.72
2024-01-28T04:02:38.289Z,60.59
2024-01-28T04:03:41.269Z,60.71
2024-01-28T04:04:43.691Z,60.81
2024-01-28T04:05:46.090Z,60.81
2024-01-28T04:06:48.567Z,60.80
2024-01-28T04:07:51.386Z,60.76
2024-01-28T04:08:56.732Z,60.58
2024-01-28T04:09:59.103Z,60.80
2024-01-28T04:11:04.108Z,60.59
2024-01-28T04:12:06.680Z,60.79
2024-01-28T04:13:09.080Z,60.61
2024-01-28T04:14:11.452Z,60.67
2024-01-28T04:15:13.804Z,60.83
2024-01-28T04:16:16.466Z,60.98
2024-01-28T04:17:18.761Z,61.06
2024-01-28T04:18:21.255Z,60.98
2024-01-28T04:19:24.055Z,61.09
2024-01-28T04:20:26.400Z,60.89
2024-01-28T04:21:30.459Z,61.08
2024-01-28T04:22:32.891Z,60.94
2024-01-28T04:23:35.289Z,60.91
2024-01-28T04:24:38.264Z,60.99
2024-01-28T04:25:40.632Z,61.19
2024-01-28T04:26:43.034Z,60.99
2024-01-28T04:27:46.153Z,61.29
2024-01-28T04:28:48.618Z,61.38
2024-01-28T04:29:50.968Z,61.37
2024-01-28T04:30:53.372Z,61.38
2024-01-28T04:31:55.716Z,61.27
2024-01-28T04:32:58.090Z,61.55
2024-01-28T04:34:00.519Z,61.69
2024-01-28T04:35:03.397Z,61.68
2024-01-28T04:36:06.572Z,61.45
2024-01-28T04:37:08.905Z,61.72
2024-01-28T04:38:11.279Z,61.65
2024-01-28T04:39:14.235Z,61.65
2024-01-28T04:40:16.640Z,61.69
2024-01-28T04:41:19.043Z,61.67
2024-01-28T04:42:23.934Z,61.62
2024-01-28T04:43:26.379Z,61.62
2024-01-28T04:44:28.931Z,61.46
2024-01-28T04:45:31.356Z,61.53
2024-01-28T04:46:33.692Z,61.72
2024-01-28T04:47:35.992Z,61.57
2024-01-28T04:48:38.827Z,61.64
2024-01-28T04:49:44.140Z,61.77
2024-01-28T04:50:47.829Z,61.75
2024-01-28T04:51:50.256Z,61.68
2024-01-28T04:52:53.108Z,61.75
2024-01-28T04:53:55.418Z,61.96
2024-01-28T04:54:57.794Z,61.60
2024-01-28T04:56:00.325Z,61.62
2024-01-28T04:57:03.348Z,61.56
2024-01-28T04:58:05.643Z,61.66
2024-01-28T04:59:09.061Z,61.39
2024-01-28T05:00:12.282Z,61.31
2024-01-28T05:01:14.898Z,61.33
2024-01-28T05:02:17.511Z,61.38
2024-01-28T05:03:19.942Z,61.68
2024-01-28T05:04:22.633Z,61.59
2024-01-28T05:05:25.037Z,61.45
2024-01-28T05:06:36.173Z,61.62
2024-01-28T05:07:38.707Z,61.38
2024-01-28T05:08:41.866Z,61.40
2024-01-28T05:09:44.620Z,61.34
2024-01-28T05:10:47.110Z,61.34
2024-01-28T05:11:49.398Z,61.36
2024-01-28T05:12:52.214Z,61.47
2024-01-28T05:13:55.305Z,61.45
2024-01-28T05:14:57.650Z,61.42
2024-01-28T05:16:00.125Z,61.48
2024-01-28T05:17:02.793Z,61.51
2024-01-28T05:18:06.784Z,61.65
2024-01-28T05:19:10.124Z,61.42
2024-01-28T05:20:13.382Z,61.44
2024-01-28T05:21:15.702Z,61.46
2024-01-28T05:22:20.940Z,61.51
2024-01-28T05:23:23.256Z,61.55
2024-01-28T05:24:25.764Z,61.39
2024-01-28T05:25:28.252Z,61.52
2024-01-28T05:26:30.601Z,61.36
2024-01-28T05:27:33.574Z,61.58
2024-01-28T05:28:36.320Z,61.43
2024-01-28T05:29:39.156Z,61.56
2024-01-28T05:30:41.566Z,61.44
2024-01-28T05:31:43.967Z,61.56
2024-01-28T05:32:46.548Z,61.63
2024-01-28T05:33:49.227Z,61.29
2024-01-28T05:34:51.810Z,61.62
2024-01-28T05:35:54.253Z,61.57
2024-01-28T05:36:57.274Z,61.60
2024-01-28T05:38:00.740Z,61.65
2024-01-28T05:39:03.272Z,61.73
2024-01-28T05:40:06.385Z,61.48
2024-01-28T05:41:08.783Z,61.47
2024-01-28T05:42:11.177Z,61.59
2024-01-28T05:43:13.555Z,61.56
2024-01-28T05:44:15.882Z,61.56
2024-01-28T05:45:18.224Z,61.60
2024-01-28T05:46:20.736Z,61.49
2024-01-28T05:47:23.130Z,61.63
2024-01-28T05:48:26.550Z,61.46
2024-01-28T05:49:29.058Z,61.46
2024-01-28T05:50:31.695Z,61.60
2024-01-28T05:51:36.936Z,61.49
2024-01-28T05:52:39.307Z,61.54
2024-01-28T05:53:42.092Z,61.59
2024-01-28T05:54:44.454Z,61.39
2024-01-28T05:55:46.993Z,61.39
2024-01-28T05:56:49.470Z,61.55
2024-01-28T05:57:51.853Z,61.59
2024-01-28T05:58:54.240Z,61.43
2024-01-28T05:59:57.592Z,61.44
2024-01-28T06:01:04.236Z,61.47
2024-01-28T06:02:06.686Z,61.55
2024-01-28T06:03:08.957Z,61.50
2024-01-28T06:04:12.298Z,61.51
2024-01-28T06:05:14.797Z,61.48
2024-01-28T06:06:17.193Z,61.46
2024-01-28T06:07:19.600Z,61.56
2024-01-28T06:08:21.925Z,61.81
2024-01-28T06:09:24.262Z,61.61
2024-01-28T06:10:26.580Z,61.60
2024-01-28T06:11:31.627Z,61.55
2024-01-28T06:12:34.043Z,61.55
2024-01-28T06:13:37.927Z,61.60
2024-01-28T06:14:40.358Z,61.66
2024-01-28T06:15:42.768Z,61.64
2024-01-28T06:16:45.109Z,61.60
2024-01-28T06:17:47.520Z,61.75
2024-01-28T06:18:50.085Z,61.63
2024-01-28T06:19:54.037Z,61.85
2024-01-28T06:20:56.497Z,61.63
2024-01-28T06:22:03.422Z,61.74
2024-01-28T06:23:06.170Z,61.84
2024-01-28T06:24:08.767Z,61.86
2024-01-28T06:25:11.111Z,61.77
2024-01-28T06:26:13.423Z,61.88
2024-01-28T06:27:15.894Z,61.75
2024-01-28T06:28:18.540Z,61.63
2024-01-28T06:29:20.843Z,61.73
2024-01-28T06:30:23.562Z,61.57
2024-01-28T06:31:26.011Z,61.63
2024-01-28T06:32:28.650Z,61.60
2024-01-28T06:33:31.184Z,61.83
2024-01-28T06:34:33.577Z,61.62
2024-01-28T06:35:35.990Z,61.72
2024-01-28T06:36:38.299Z,61.78
2024-01-28T06:37:41.380Z,61.93
2024-01-28T06:38:43.890Z,61.94
2024-01-28T06:39:51.524Z,61.85
2024-01-28T06:40:53.913Z,61.99
2024-01-28T06:41:56.271Z,61.94
2024-01-28T06:42:58.617Z,61.79
2024-01-28T06:44:01.720Z,61.89
2024-01-28T06:45:04.278Z,61.85
2024-01-28T06:46:06.693Z,61.91
2024-01-28T06:47:09.158Z,61.84
2024-01-28T06:48:11.618Z,61.94
2024-01-28T06:49:16.034Z,61.87
2024-01-28T06:50:20.702Z,61.95
2024-01-28T06:51:23.133Z,61.95
2024-01-28T06:52:25.478Z,61.82
2024-01-28T06:53:27.812Z,61.82
2024-01-28T06:54:30.222Z,62.03
2024-01-28T06:55:32.612Z,62.00
2024-01-28T06:56:34.981Z,62.23
2024-01-28T06:57:39.012Z,62.09
2024-01-28T06:58:43.515Z,62.15
2024-01-28T06:59:45.866Z,62.16
2024-01-28T07:00:48.301Z,62.21
2024-01-28T07:01:50.674Z,62.12
2024-01-28T07:02:55.056Z,62.10
2024-01-28T07:03:57.482Z,62.13
2024-01-28T07:05:01.064Z,62.16
2024-01-28T07:06:04.728Z,62.14
2024-01-28T07:07:07.107Z,61.97
2024-01-28T07:08:10.396Z,62.08
2024-01-28T07:09:13.630Z,61.92
2024-01-28T07:10:16.450Z,62.05
2024-01-28T07:11:19.065Z,61.83
2024-01-28T07:12:21.455Z,61.79
2024-01-28T07:13:24.312Z,61.99
2024-01-28T07:14:26.686Z,61.92
2024-01-28T07:15:29.036Z,61.76
2024-01-28T07:16:31.700Z,61.93
2024-01-28T07:17:34.077Z,61.91
2024-01-28T07:18:36.604Z,61.80
2024-01-28T07:19:42.080Z,62.03
2024-01-28T07:20:44.936Z,61.93
2024-01-28T07:21:48.261Z,62.00
2024-01-28T07:22:50.681Z,61.75
2024-01-28T07:23:53.483Z,61.86
2024-01-28T07:24:55.890Z,61.82
2024-01-28T07:26:00.141Z,61.81
2024-01-28T07:27:02.812Z,61.90
2024-01-28T07:28:05.330Z,61.98
2024-01-28T07:29:07.782Z,61.98
2024-01-28T07:30:10.689Z,62.06
2024-01-28T07:31:13.066Z,61.88
2024-01-28T07:32:15.729Z,61.97
2024-01-28T07:33:18.987Z,62.10
2024-01-28T07:34:22.328Z,62.15
2024-01-28T07:35:25.430Z,62.18
2024-01-28T07:36:30.375Z,62.10
2024-01-28T07:37:32.762Z,61.97
2024-01-28T07:38:35.821Z,61.93
2024-01-28T07:39:38.202Z,62.06
2024-01-28T07:40:40.768Z,62.16
2024-01-28T07:41:43.452Z,62.04
2024-01-28T07:42:45.804Z,62.07
2024-01-28T07:43:48.191Z,62.27
2024-01-28T07:44:50.499Z,62.08
2024-01-28T07:45:53.114Z,62.29
2024-01-28T07:46:55.538Z,62.24
2024-01-28T07:47:58.252Z,62.32
2024-01-28T07:49:01.283Z,62.24
2024-01-28T07:50:04.835Z,62.19
2024-01-28T07:51:07.384Z,62.47
2024-01-28T07:52:09.769Z,62.51
2024-01-28T07:53:14.633Z,62.42
2024-01-28T07:54:17.064Z,62.29
2024-01-28T07:55:19.433Z,62.19
2024-01-28T07:56:22.336Z,62.26
2024-01-28T07:57:24.743Z,62.09
2024-01-28T07:58:27.056Z,61.97
2024-01-28T07:59:29.415Z,61.62
2024-01-28T08:00:33.014Z,61.53
2024-01-28T08:01:35.379Z,61.52
2024-01-28T08:02:37.807Z,61.35
2024-01-28T08:03:40.394Z,61.29
2024-01-28T08:04:47.718Z,61.18
2024-01-28T08:05:50.137Z,61.13
2024-01-28T08:06:52.561Z,60.73
2024-01-28T08:07:55.561Z,60.57
2024-01-28T08:08:57.969Z,60.43
2024-01-28T08:10:00.385Z,60.25
2024-01-28T08:11:03.201Z,59.83
2024-01-28T08:12:05.936Z,59.51
2024-01-28T08:13:08.309Z,59.11
2024-01-28T08:14:11.096Z,59.14
2024-01-28T08:15:13.510Z,58.97
2024-01-28T08:16:16.157Z,59.00
2024-01-28T08:17:18.495Z,58.67
2024-01-28T08:18:21.029Z,58.35
2024-01-28T08:19:23.612Z,58.51
2024-01-28T08:20:26.308Z,58.42
2024-01-28T08:21:28.697Z,58.31
2024-01-28T08:22:31.102Z,58.09
2024-01-28T08:23:35.018Z,57.91
2024-01-28T08:24:37.481Z,57.78
2024-01-28T08:25:39.906Z,57.83
2024-01-28T08:26:42.288Z,57.83
2024-01-28T08:27:46.136Z,57.12
2024-01-28T08:28:48.619Z,56.80
2024-01-28T08:29:52.973Z,56.66
2024-01-28T08:30:55.933Z,56.46
2024-01-28T08:32:01.168Z,55.60
2024-01-28T08:33:03.655Z,55.42
2024-01-28T08:34:06.503Z,55.31
2024-01-28T08:35:09.210Z,54.84
2024-01-28T08:36:11.750Z,54.68
2024-01-28T08:37:15.108Z,53.95
2024-01-28T08:38:17.430Z,54.02
2024-01-28T08:39:19.803Z,53.69
2024-01-28T08:40:22.123Z,53.69
2024-01-28T08:41:24.438Z,53.65
2024-01-28T08:42:26.923Z,53.20
2024-01-28T08:43:33.722Z,53.01
2024-01-28T08:44:37.155Z,52.91
2024-01-28T08:45:39.618Z,52.83
2024-01-28T08:46:42.003Z,52.75
2024-01-28T08:47:44.618Z,52.84
2024-01-28T08:48:47.092Z,52.58
2024-01-28T08:49:50.163Z,52.48
2024-01-28T08:50:52.735Z,52.45
2024-01-28T08:51:55.774Z,52.21
2024-01-28T08:52:58.176Z,52.23
2024-01-28T08:54:00.576Z,52.19
2024-01-28T08:55:03.094Z,51.86
2024-01-28T08:56:08.960Z,51.74
2024-01-28T08:57:13.085Z,51.66
2024-01-28T08:58:15.642Z,51.55
2024-01-28T08:59:18.526Z,51.38
2024-01-28T09:00:21.245Z,51.23
2024-01-28T09:01:23.626Z,51.13
2024-01-28T09:02:26.192Z,50.94
2024-01-28T09:03:28.602Z,50.74
2024-01-28T09:04:31.378Z,50.67
2024-01-28T09:05:33.782Z,50.35
2024-01-28T09:06:37.348Z,50.19
2024-01-28T09:07:42.662Z,49.96
2024-01-28T09:08:44.975Z,49.81
2024-01-28T09:09:47.476Z,49.52
2024-01-28T09:10:49.833Z,49.57
2024-01-28T09:11:55.008Z,49.22
2024-01-28T09:12:58.959Z,49.09
2024-01-28T09:14:02.644Z,48.80
2024-01-28T09:15:05.496Z,48.60
2024-01-28T09:16:08.321Z,48.49
2024-01-28T09:17:11.457Z,48.36
2024-01-28T09:18:14.076Z,48.29
2024-01-28T09:19:16.468Z,48.22
2024-01-28T09:20:18.978Z,48.15
2024-01-28T09:21:21.323Z,47.94
2024-01-28T09:22:23.628Z,47.89
2024-01-28T09:23:26.225Z,47.81
2024-01-28T09:24:28.555Z,47.59
2024-01-28T09:25:34.255Z,47.76
2024-01-28T09:26:36.744Z,47.54
2024-01-28T09:27:39.144Z,47.02
2024-01-28T09:28:41.513Z,47.09
2024-01-28T09:29:43.865Z,47.25
2024-01-28T09:30:46.315Z,47.38
2024-01-28T09:31:49.049Z,46.96
2024-01-28T09:32:51.515Z,47.00
2024-01-28T09:33:54.586Z,46.53
2024-01-28T09:34:57.020Z,46.76
2024-01-28T09:36:00.066Z,46.66
2024-01-28T09:37:02.690Z,46.57
2024-01-28T09:38:05.542Z,46.41
2024-01-28T09:39:08.323Z,46.46
2024-01-28T09:40:14.838Z,46.45
2024-01-28T09:41:25.983Z,46.09
2024-01-28T09:42:32.565Z,46.02
2024-01-28T09:43:40.390Z,46.20
2024-01-28T09:44:42.722Z,45.95
2024-01-28T09:45:45.199Z,45.91
2024-01-28T09:46:47.767Z,45.60
2024-01-28T09:47:50.637Z,45.65
2024-01-28T09:48:53.541Z,45.50
2024-01-28T09:50:00.736Z,45.76
2024-01-28T09:51:03.167Z,45.82
2024-01-28T09:52:05.881Z,45.72
2024-01-28T09:53:08.993Z,46.09
2024-01-28T09:54:14.275Z,45.71
2024-01-28T09:55:16.750Z,45.69
2024-01-28T09:56:19.145Z,45.90
2024-01-28T09:57:21.527Z,46.02
2024-01-28T09:58:23.926Z,46.00
2024-01-28T09:59:26.582Z,45.93
2024-01-28T10:00:29.055Z,45.68
2024-01-28T10:01:32.609Z,45.72
2024-01-28T10:02:37.294Z,45.27
2024-01-28T10:03:39.756Z,45.20
2024-01-28T10:04:44.157Z,44.82
2024-01-28T10:05:47.322Z,44.99
2024-01-28T10:06:49.936Z,44.71
2024-01-28T10:08:05.671Z,44.74
2024-01-28T10:09:08.091Z,44.72
2024-01-28T10:10:10.918Z,44.55
2024-01-28T10:11:15.428Z,44.40
2024-01-28T10:12:18.870Z,44.43
2024-01-28T10:13:21.246Z,44.40
2024-01-28T10:14:23.586Z,44.51
2024-01-28T10:15:29.555Z,44.28
2024-01-28T10:16:33.515Z,44.28
2024-01-28T10:17:36.212Z,44.06
2024-01-28T10:18:38.983Z,44.12
2024-01-28T10:19:41.536Z,43.84
2024-01-28T10:20:43.919Z,43.86
2024-01-28T10:21:47.671Z,43.55
2024-01-28T10:22:52.590Z,43.52
2024-01-28T10:23:55.364Z,43.27
2024-01-28T10:24:58.492Z,43.32
2024-01-28T10:26:03.821Z,43.44
2024-01-28T10:27:08.404Z,43.47
2024-01-28T10:28:11.110Z,43.31
2024-01-28T10:29:14.851Z,43.48
2024-01-28T10:30:19.710Z,43.52
2024-01-28T10:31:24.902Z,43.75
2024-01-28T10:32:28.683Z,43.74
2024-01-28T10:33:31.265Z,43.90
2024-01-28T10:34:33.819Z,43.81
2024-01-28T10:35:36.404Z,43.67
2024-01-28T10:36:41.754Z,44.00
2024-01-28T10:37:50.167Z,43.74
2024-01-28T10:38:53.697Z,43.97
2024-01-28T10:40:05.100Z,44.05
2024-01-28T10:41:08.156Z,44.01
2024-01-28T10:42:15.568Z,44.08
2024-01-28T10:43:19.489Z,43.87
2024-01-28T10:44:22.154Z,44.10
2024-01-28T10:45:25.797Z,43.80
2024-01-28T10:46:41.122Z,43.97
2024-01-28T10:47:52.902Z,43.78
2024-01-28T10:49:00.468Z,43.54
2024-01-28T10:50:09.343Z,43.50
2024-01-28T10:51:14.837Z,43.42
2024-01-28T10:52:20.145Z,43.23
2024-01-28T10:53:23.235Z,43.17
2024-01-28T10:54:26.743Z,43.05
2024-01-28T10:55:29.756Z,43.25
2024-01-28T10:56:37.294Z,43.40
2024-01-28T10:57:41.478Z,43.31
2024-01-28T10:58:45.593Z,43.15
2024-01-28T10:59:48.641Z,43.27
2024-01-28T11:00:51.198Z,43.23
2024-01-28T11:01:54.256Z,43.21
2024-01-28T11:03:00.393Z,43.37
2024-01-28T11:04:04.980Z,43.00
2024-01-28T11:05:08.760Z,42.99
2024-01-28T11:06:11.274Z,42.92
2024-01-28T11:07:14.095Z,42.86
2024-01-28T11:08:16.519Z,42.87
2024-01-28T11:09:18.919Z,43.07
2024-01-28T11:10:22.948Z,43.25
2024-01-28T11:11:25.673Z,43.18
2024-01-28T11:12:29.459Z,43.16
2024-01-28T11:13:32.939Z,42.89
2024-01-28T11:14:35.461Z,42.95
2024-01-28T11:15:38.159Z,42.83
2024-01-28T11:16:42.663Z,42.81
2024-01-28T11:17:46.443Z,42.84
2024-01-28T11:19:08.873Z,43.11
2024-01-28T11:20:13.588Z,43.11
2024-01-28T11:21:20.877Z,43.24
2024-01-28T11:22:23.327Z,43.29
2024-01-28T11:23:30.994Z,42.97
2024-01-28T11:24:48.463Z,43.27
2024-01-28T11:25:55.222Z,42.94
2024-01-28T11:26:59.475Z,42.67
2024-01-28T11:28:04.686Z,42.50
2024-01-28T11:29:08.673Z,42.52
2024-01-28T11:30:12.502Z,42.39
2024-01-28T11:31:22.276Z,42.76
2024-01-28T11:32:37.964Z,42.57
2024-01-28T11:33:47.400Z,42.65
2024-01-28T11:34:51.760Z,42.61
2024-01-28T11:35:56.232Z,42.70
2024-01-28T11:37:00.814Z,42.07
2024-01-28T11:38:08.020Z,41.55
2024-01-28T11:39:13.531Z,41.55
2024-01-28T11:40:23.537Z,41.34
2024-01-28T11:41:28.482Z,41.73
2024-01-28T11:42:31.550Z,41.38
2024-01-28T11:43:33.939Z,41.44
2024-01-28T11:44:41.457Z,41.53
2024-01-28T11:45:45.314Z,41.55
2024-01-28T11:46:47.852Z,41.63
2024-01-28T11:47:50.363Z,41.64
2024-01-28T11:48:53.157Z,41.81
2024-01-28T11:49:55.811Z,41.79
2024-01-28T11:50:58.337Z,42.04
2024-01-28T11:52:00.890Z,41.96
2024-01-28T11:53:06.628Z,41.98
2024-01-28T11:54:09.037Z,41.80
2024-01-28T11:55:13.417Z,41.72
2024-01-28T11:56:17.736Z,41.54
2024-01-28T11:57:20.135Z,41.38
2024-01-28T11:58:22.728Z,41.66
2024-01-28T11:59:25.397Z,41.61
2024-01-28T12:00:28.112Z,41.44
2024-01-28T12:01:31.167Z,41.48
2024-01-28T12:02:33.639Z,41.57
2024-01-28T12:03:36.214Z,41.42
2024-01-28T12:04:42.038Z,41.47
2024-01-28T12:05:44.345Z,41.42
2024-01-28T12:06:46.722Z,41.56
2024-01-28T12:07:49.218Z,41.31
2024-01-28T12:08:52.821Z,41.21
2024-01-28T12:09:55.984Z,41.19
2024-01-28T12:11:00.059Z,41.18
2024-01-28T12:12:02.456Z,41.44
2024-01-28T12:13:07.346Z,41.18
2024-01-28T12:14:10.062Z,41.30
2024-01-28T12:15:14.588Z,41.26
2024-01-28T12:16:21.484Z,41.44
2024-01-28T12:17:24.243Z,41.46
2024-01-28T12:18:34.005Z,41.77
2024-01-28T12:19:40.049Z,41.73
2024-01-28T12:20:43.937Z,41.57
2024-01-28T12:21:48.429Z,41.47
2024-01-28T12:22:51.321Z,41.37
2024-01-28T12:23:55.120Z,41.20
2024-01-28T12:24:57.442Z,41.14
2024-01-28T12:26:00.173Z,41.19
2024-01-28T12:27:02.540Z,41.24
2024-01-28T12:28:05.051Z,41.27
2024-01-28T12:29:07.395Z,41.53
2024-01-28T12:30:12.810Z,41.54
2024-01-28T12:31:15.327Z,41.64
2024-01-28T12:32:18.197Z,41.50
2024-01-28T12:33:21.524Z,41.68
2024-01-28T12:34:27.498Z,41.34
2024-01-28T12:35:29.838Z,41.17
2024-01-28T12:36:32.326Z,41.29
2024-01-28T12:37:36.135Z,41.42
2024-01-28T12:38:39.854Z,41.45
2024-01-28T12:39:42.242Z,41.38
2024-01-28T12:40:44.875Z,41.16
2024-01-28T12:41:47.324Z,41.19
2024-01-28T12:42:49.740Z,41.13
2024-01-28T12:43:53.831Z,40.92
2024-01-28T12:44:56.506Z,41.05
2024-01-28T12:45:59.390Z,40.95
2024-01-28T12:47:01.816Z,40.61
2024-01-28T12:48:05.547Z,41.02
2024-01-28T12:49:11.556Z,40.83
2024-01-28T12:50:15.241Z,40.85
2024-01-28T12:51:17.807Z,40.80
2024-01-28T12:52:20.551Z,40.80
2024-01-28T12:53:23.106Z,40.54
2024-01-28T12:54:26.145Z,40.58
2024-01-28T12:55:28.900Z,40.59
2024-01-28T12:56:31.348Z,40.49
2024-01-28T12:57:34.247Z,40.29
2024-01-28T12:58:36.716Z,40.01
2024-01-28T12:59:39.415Z,40.20
2024-01-28T13:00:41.885Z,40.03
2024-01-28T13:01:44.254Z,39.78
2024-01-28T13:02:46.742Z,40.02
2024-01-28T13:03:49.237Z,40.21
2024-01-28T13:04:51.727Z,40.05
2024-01-28T13:05:54.307Z,40.22
2024-01-28T13:06:56.733Z,40.47
2024-01-28T13:08:02.225Z,40.00
2024-01-28T13:09:04.571Z,40.15
2024-01-28T13:10:07.524Z,40.08
2024-01-28T13:11:09.868Z,39.94
2024-01-28T13:12:12.244Z,39.90
2024-01-28T13:13:14.611Z,39.91
2024-01-28T13:14:16.875Z,39.76
2024-01-28T13:15:19.600Z,39.53
2024-01-28T13:16:22.513Z,39.73
2024-01-28T13:17:26.098Z,39.78
2024-01-28T13:18:33.947Z,39.64
2024-01-28T13:19:38.588Z,40.01
2024-01-28T13:20:41.217Z,39.71
2024-01-28T13:21:43.640Z,39.49
2024-01-28T13:22:46.597Z,39.66
2024-01-28T13:23:49.108Z,39.47
2024-01-28T13:24:55.436Z,39.54
2024-01-28T13:25:57.886Z,39.48
2024-01-28T13:27:00.628Z,39.62
2024-01-28T13:28:03.073Z,39.37
2024-01-28T13:29:05.435Z,39.36
2024-01-28T13:30:08.884Z,39.20
2024-01-28T13:31:11.350Z,39.15
2024-01-28T13:32:13.797Z,39.19
2024-01-28T13:33:16.298Z,38.49
2024-01-28T13:34:18.858Z,38.32